Time;durP1;ratioP1;P1;durP2;ratioP2;P2;SDS_P1;SDS_P2;PMS_P1;PMS_P2;Temp;Humidity;BMP_temperature;BMP_pressure;BME280_temperature;BME280_humidity;BME280_pressure;Samples;Min_cycle;Max_cycle;Signal;HPM_P1;HPM_P2
2022/03/20 00:00:29;;;;;;;18.90;15.63;;;;;;;;;;4988862;28;20307;-60
2022/03/20 00:02:55;;;;;;;18.50;15.67;;;;;;;;;;4985959;28;20216;-59
2022/03/20 00:05:21;;;;;;;16.57;14.70;;;;;;;;;;4978557;28;20298;-59
2022/03/20 00:07:47;;;;;;;17.00;14.47;;;;;;;;;;4980603;28;20203;-60
2022/03/20 00:10:14;;;;;;;19.80;14.83;;;;;;;;;;4981993;28;21575;-59
2022/03/20 00:12:40;;;;;;;20.27;15.43;;;;;;;;;;4985579;28;20197;-59
2022/03/20 00:15:06;;;;;;;19.73;15.43;;;;;;;;;;4979057;28;20234;-60
2022/03/20 00:17:32;;;;;;;18.80;15.50;;;;;;;;;;4985257;28;20258;-59
2022/03/20 00:19:58;;;;;;;19.50;15.63;;;;;;;;;;4981087;28;20204;-59
2022/03/20 00:22:24;;;;;;;18.70;15.37;;;;;;;;;;4986405;28;20214;-60
2022/03/20 00:24:50;;;;;;;21.83;15.33;;;;;;;;;;4976684;28;20235;-59
2022/03/20 00:27:16;;;;;;;19.13;16.07;;;;;;;;;;4979619;28;20232;-60
2022/03/20 00:29:42;;;;;;;21.57;16.37;;;;;;;;;;4979733;28;20192;-59
2022/03/20 00:32:09;;;;;;;20.27;15.43;;;;;;;;;;4987534;28;20195;-59
2022/03/20 00:34:34;;;;;;;21.43;15.90;;;;;;;;;;4989731;28;20222;-60
2022/03/20 00:37:00;;;;;;;20.43;15.80;;;;;;;;;;4989933;28;20200;-59
2022/03/20 00:39:26;;;;;;;18.13;15.67;;;;;;;;;;4989956;28;20235;-59
2022/03/20 00:41:52;;;;;;;17.70;15.53;;;;;;;;;;4990088;28;20220;-59
2022/03/20 00:44:18;;;;;;;19.07;16.03;;;;;;;;;;4990141;28;20204;-60
2022/03/20 00:46:44;;;;;;;20.30;16.60;;;;;;;;;;4980637;28;20200;-59
2022/03/20 00:49:10;;;;;;;20.43;15.90;;;;;;;;;;4985727;28;20201;-59
2022/03/20 00:51:36;;;;;;;18.10;15.50;;;;;;;;;;4996307;28;22335;-59
2022/03/20 00:54:02;;;;;;;22.93;16.20;;;;;;;;;;4993491;28;20197;-59
2022/03/20 00:56:28;;;;;;;17.77;15.27;;;;;;;;;;4988451;28;20278;-59
2022/03/20 00:58:54;;;;;;;19.27;15.87;;;;;;;;;;4997952;28;21152;-59
2022/03/20 01:01:20;;;;;;;18.73;15.53;;;;;;;;;;4989860;28;20212;-59
2022/03/20 01:03:46;;;;;;;17.87;15.33;;;;;;;;;;4987738;28;20191;-59
2022/03/20 01:06:12;;;;;;;22.07;16.73;;;;;;;;;;4974887;28;20245;-59
2022/03/20 01:08:38;;;;;;;21.47;16.07;;;;;;;;;;4979691;28;20199;-59
2022/03/20 01:11:05;;;;;;;17.93;14.93;;;;;;;;;;4969778;28;20239;-59
2022/03/20 01:13:31;;;;;;;20.57;14.80;;;;;;;;;;4988324;28;20284;-60
2022/03/20 01:15:57;;;;;;;21.00;15.80;;;;;;;;;;4985148;28;20635;-60
2022/03/20 01:18:24;;;;;;;20.33;15.53;;;;;;;;;;4986795;28;21504;-59
2022/03/20 01:20:50;;;;;;;19.87;16.13;;;;;;;;;;4987312;28;20713;-59
2022/03/20 01:23:16;;;;;;;21.10;15.63;;;;;;;;;;4983125;28;20200;-60
2022/03/20 01:25:42;;;;;;;20.03;15.33;;;;;;;;;;4983960;28;20303;-60
2022/03/20 01:28:08;;;;;;;19.73;15.50;;;;;;;;;;4986334;28;20193;-59
2022/03/20 01:30:34;;;;;;;18.37;15.13;;;;;;;;;;4989721;28;20201;-60
2022/03/20 01:33:01;;;;;;;22.80;15.80;;;;;;;;;;4991540;28;20189;-59
2022/03/20 01:35:27;;;;;;;20.20;16.23;;;;;;;;;;4983411;28;20204;-59
2022/03/20 01:37:53;;;;;;;19.47;16.00;;;;;;;;;;4981294;28;20185;-59
2022/03/20 01:40:19;;;;;;;23.53;15.73;;;;;;;;;;4987008;28;20670;-59
2022/03/20 01:42:46;;;;;;;19.13;15.30;;;;;;;;;;4986888;28;20702;-59
2022/03/20 01:45:13;;;;;;;19.67;16.30;;;;;;;;;;4985632;28;20200;-59
2022/03/20 01:47:39;;;;;;;17.87;15.00;;;;;;;;;;4993368;28;20185;-60
2022/03/20 01:50:05;;;;;;;17.73;14.73;;;;;;;;;;4982416;28;20654;-59
2022/03/20 01:52:32;;;;;;;20.33;15.97;;;;;;;;;;4984468;28;20198;-59
2022/03/20 01:54:58;;;;;;;18.70;14.90;;;;;;;;;;4989462;28;20831;-59
2022/03/20 01:57:26;;;;;;;18.33;14.97;;;;;;;;;;4981029;28;20197;-60
2022/03/20 01:59:52;;;;;;;21.37;16.03;;;;;;;;;;4994500;28;20205;-59
2022/03/20 02:02:18;;;;;;;17.57;14.70;;;;;;;;;;4984346;28;20216;-59
2022/03/20 02:04:44;;;;;;;21.50;16.03;;;;;;;;;;4983394;28;20220;-60
2022/03/20 02:07:10;;;;;;;20.10;15.17;;;;;;;;;;4977996;28;20826;-59
2022/03/20 02:09:36;;;;;;;22.27;15.87;;;;;;;;;;4991761;28;20197;-59
2022/03/20 02:12:02;;;;;;;19.77;15.43;;;;;;;;;;4985125;28;20270;-59
2022/03/20 02:14:28;;;;;;;19.97;16.13;;;;;;;;;;4992279;28;21293;-59
2022/03/20 02:16:55;;;;;;;22.40;15.73;;;;;;;;;;4992914;28;20462;-59
2022/03/20 02:19:21;;;;;;;18.77;15.07;;;;;;;;;;4993036;28;20196;-59
2022/03/20 02:21:48;;;;;;;17.63;15.00;;;;;;;;;;4997806;28;20466;-60
2022/03/20 02:24:32;;;;;;;17.80;15.47;;;;;;;;;;5006393;28;20204;-59
2022/03/20 02:27:02;;;;;;;19.13;15.53;;;;;;;;;;4986386;28;20188;-59
2022/03/20 02:29:28;;;;;;;19.43;15.27;;;;;;;;;;4993702;28;20205;-59
2022/03/20 02:31:54;;;;;;;19.67;15.23;;;;;;;;;;4986329;28;20204;-60
2022/03/20 02:34:20;;;;;;;19.43;15.27;;;;;;;;;;4984819;28;20560;-60
2022/03/20 02:36:46;;;;;;;20.27;16.10;;;;;;;;;;4987936;28;20346;-60
2022/03/20 02:39:12;;;;;;;20.23;14.87;;;;;;;;;;4987606;28;20283;-59
2022/03/20 02:41:38;;;;;;;18.33;15.30;;;;;;;;;;4989552;28;20721;-60
2022/03/20 02:44:04;;;;;;;17.73;14.83;;;;;;;;;;4980217;28;20193;-59
2022/03/20 02:46:32;;;;;;;19.20;15.20;;;;;;;;;;4986375;28;20622;-60
2022/03/20 02:48:59;;;;;;;20.33;15.83;;;;;;;;;;4986116;28;20322;-59
2022/03/20 02:51:24;;;;;;;19.00;15.50;;;;;;;;;;4990065;28;20197;-59
2022/03/20 02:53:50;;;;;;;17.10;14.90;;;;;;;;;;4983404;28;20302;-59
2022/03/20 02:56:16;;;;;;;21.70;15.60;;;;;;;;;;4990936;28;20312;-59
2022/03/20 02:58:42;;;;;;;20.83;15.57;;;;;;;;;;4983879;28;20223;-59
2022/03/20 03:01:08;;;;;;;19.33;15.13;;;;;;;;;;4979407;28;20188;-59
2022/03/20 03:03:34;;;;;;;19.77;15.47;;;;;;;;;;4982999;28;20389;-59
2022/03/20 03:06:06;;;;;;;20.70;15.67;;;;;;;;;;4988619;28;20206;-60
2022/03/20 03:11:18;;;;;;;17.83;14.67;;;;;;;;;;4985650;28;20247;-59
2022/03/20 03:13:44;;;;;;;19.47;15.67;;;;;;;;;;4976910;28;20217;-59
2022/03/20 03:16:11;;;;;;;17.73;14.87;;;;;;;;;;4970994;28;20193;-60
2022/03/20 03:18:37;;;;;;;22.80;15.23;;;;;;;;;;4984782;28;22321;-59
2022/03/20 03:21:03;;;;;;;18.63;15.70;;;;;;;;;;4987346;28;20224;-59
2022/03/20 03:23:30;;;;;;;21.97;17.00;;;;;;;;;;4986650;28;20213;-59
2022/03/20 03:25:56;;;;;;;18.93;15.40;;;;;;;;;;4983183;28;20501;-60
2022/03/20 03:28:23;;;;;;;19.33;15.37;;;;;;;;;;4983001;28;20816;-60
2022/03/20 03:30:49;;;;;;;22.53;16.37;;;;;;;;;;4985005;28;20279;-59
2022/03/20 03:33:19;;;;;;;19.20;15.73;;;;;;;;;;4985625;28;20232;-60
2022/03/20 03:35:51;;;;;;;19.57;14.83;;;;;;;;;;4985890;28;20208;-60
2022/03/20 03:38:18;;;;;;;19.90;15.57;;;;;;;;;;4992833;28;20259;-59
2022/03/20 03:40:45;;;;;;;20.60;16.20;;;;;;;;;;4977652;28;20192;-59
2022/03/20 03:43:15;;;;;;;20.43;16.17;;;;;;;;;;4987640;28;20236;-59
2022/03/20 03:45:41;;;;;;;19.77;15.40;;;;;;;;;;4987492;28;20211;-60
2022/03/20 03:48:07;;;;;;;20.50;15.13;;;;;;;;;;4983201;28;20196;-60
2022/03/20 03:50:33;;;;;;;19.47;15.40;;;;;;;;;;4988452;28;20312;-59
2022/03/20 03:52:59;;;;;;;20.83;16.07;;;;;;;;;;4991064;28;20610;-59
2022/03/20 03:55:25;;;;;;;18.73;15.70;;;;;;;;;;4991060;28;20680;-61
2022/03/20 03:57:51;;;;;;;19.23;15.50;;;;;;;;;;4990030;28;20205;-60
2022/03/20 04:00:18;;;;;;;20.27;15.73;;;;;;;;;;4986496;28;20651;-60
2022/03/20 04:02:44;;;;;;;18.57;15.90;;;;;;;;;;4987105;28;20215;-61
2022/03/20 04:05:10;;;;;;;21.60;16.43;;;;;;;;;;4970340;28;20612;-59
2022/03/20 04:07:36;;;;;;;20.57;15.87;;;;;;;;;;4976807;28;20232;-59
2022/03/20 04:10:05;;;;;;;19.40;15.67;;;;;;;;;;4980703;28;20197;-59
2022/03/20 04:12:32;;;;;;;19.47;16.00;;;;;;;;;;4976870;28;20196;-60
2022/03/20 04:15:02;;;;;;;18.53;15.40;;;;;;;;;;4979672;28;21847;-60
2022/03/20 04:17:28;;;;;;;20.27;16.37;;;;;;;;;;4972107;28;21780;-60
2022/03/20 04:19:54;;;;;;;22.63;16.03;;;;;;;;;;4972799;28;20800;-59
2022/03/20 04:22:20;;;;;;;20.53;16.00;;;;;;;;;;4973825;28;20231;-59
2022/03/20 04:24:46;;;;;;;20.30;15.33;;;;;;;;;;4970412;28;20250;-60
2022/03/20 04:27:13;;;;;;;20.63;16.13;;;;;;;;;;4973988;28;20868;-60
2022/03/20 04:29:39;;;;;;;20.60;16.43;;;;;;;;;;4971885;28;20189;-59
2022/03/20 04:32:06;;;;;;;20.90;16.60;;;;;;;;;;4975407;28;20326;-60
2022/03/20 04:34:32;;;;;;;20.47;16.10;;;;;;;;;;4982740;28;20308;-60
2022/03/20 04:36:58;;;;;;;21.03;17.43;;;;;;;;;;4984600;28;20648;-59
2022/03/20 04:39:24;;;;;;;20.90;16.37;;;;;;;;;;4982009;28;21224;-59
2022/03/20 04:41:50;;;;;;;20.33;16.40;;;;;;;;;;4979858;28;20262;-59
2022/03/20 04:44:17;;;;;;;23.27;16.10;;;;;;;;;;4987483;28;20192;-59
2022/03/20 04:46:43;;;;;;;22.20;17.00;;;;;;;;;;4986392;28;20665;-59
2022/03/20 05:00:07;;;;;;;23.23;17.40;;;;;;;;;;4999503;28;20239;-59
2022/03/20 05:02:34;;;;;;;22.83;17.57;;;;;;;;;;5000845;28;20251;-59
2022/03/20 05:05:00;;;;;;;21.97;16.47;;;;;;;;;;5002415;28;20641;-59
2022/03/20 05:07:26;;;;;;;21.97;17.50;;;;;;;;;;5000631;28;20284;-59
2022/03/20 05:15:21;;;;;;;21.87;17.40;;;;;;;;;;4990932;28;20256;-61
2022/03/20 05:17:47;;;;;;;22.83;16.90;;;;;;;;;;4991502;28;20787;-59
2022/03/20 05:20:13;;;;;;;23.17;17.37;;;;;;;;;;4997694;28;20190;-59
2022/03/20 05:22:39;;;;;;;22.83;17.57;;;;;;;;;;4999770;28;20288;-61
2022/03/20 05:25:06;;;;;;;21.40;17.10;;;;;;;;;;4995462;28;20722;-60
2022/03/20 05:27:32;;;;;;;24.63;17.47;;;;;;;;;;4996580;28;20944;-59
2022/03/20 05:29:58;;;;;;;23.40;17.53;;;;;;;;;;4995650;28;20189;-59
2022/03/20 05:32:23;;;;;;;21.13;16.97;;;;;;;;;;4995831;28;20221;-60
2022/03/20 05:34:49;;;;;;;24.43;17.90;;;;;;;;;;5002684;28;20208;-59
2022/03/20 05:37:15;;;;;;;21.43;17.43;;;;;;;;;;5006684;28;20248;-59
2022/03/20 05:39:41;;;;;;;22.20;17.60;;;;;;;;;;4997368;28;20231;-59
2022/03/20 05:42:07;;;;;;;25.73;17.87;;;;;;;;;;5003517;28;20291;-60
2022/03/20 05:44:34;;;;;;;22.27;18.40;;;;;;;;;;4999154;28;20193;-59
2022/03/20 05:47:00;;;;;;;26.07;17.77;;;;;;;;;;4994867;28;20221;-60
2022/03/20 05:49:26;;;;;;;21.40;17.23;;;;;;;;;;5001076;28;20698;-60
2022/03/20 05:51:52;;;;;;;26.70;17.23;;;;;;;;;;5008012;28;20208;-59
2022/03/20 05:54:18;;;;;;;23.57;17.50;;;;;;;;;;5008554;28;20573;-59
2022/03/20 05:59:29;;;;;;;23.03;17.23;;;;;;;;;;5006808;28;20251;-59
2022/03/20 06:01:55;;;;;;;26.37;18.17;;;;;;;;;;5006717;28;20213;-60
2022/03/20 06:04:21;;;;;;;23.03;18.97;;;;;;;;;;5010265;28;20216;-60
2022/03/20 06:06:50;;;;;;;23.67;17.57;;;;;;;;;;5000256;28;20212;-59
2022/03/20 06:09:16;;;;;;;24.80;18.13;;;;;;;;;;5006719;28;20189;-59
2022/03/20 06:11:43;;;;;;;22.97;17.57;;;;;;;;;;5005936;28;20646;-59
2022/03/20 06:14:08;;;;;;;22.23;18.00;;;;;;;;;;5004574;28;20193;-59
2022/03/20 06:16:35;;;;;;;21.50;17.00;;;;;;;;;;4995150;28;20224;-60
2022/03/20 06:19:01;;;;;;;21.77;17.37;;;;;;;;;;4993474;28;20715;-60
2022/03/20 06:21:27;;;;;;;22.67;18.27;;;;;;;;;;4989512;28;20299;-61
2022/03/20 06:23:54;;;;;;;23.13;18.00;;;;;;;;;;5010114;28;20204;-59
2022/03/20 06:26:20;;;;;;;21.07;17.53;;;;;;;;;;5003197;28;20241;-59
2022/03/20 06:28:46;;;;;;;22.30;17.87;;;;;;;;;;5004374;28;20196;-59
2022/03/20 06:31:12;;;;;;;21.97;17.87;;;;;;;;;;5003709;28;20189;-59
2022/03/20 06:33:39;;;;;;;22.20;17.50;;;;;;;;;;4996096;28;20322;-59
2022/03/20 06:36:05;;;;;;;22.97;17.93;;;;;;;;;;4992116;28;20252;-59
2022/03/20 06:38:31;;;;;;;21.47;17.13;;;;;;;;;;4997622;28;20196;-59
2022/03/20 06:40:57;;;;;;;23.70;17.83;;;;;;;;;;4998876;28;20184;-60
2022/03/20 06:43:29;;;;;;;24.20;18.87;;;;;;;;;;4997192;28;20227;-60
2022/03/20 06:45:56;;;;;;;26.83;19.07;;;;;;;;;;4999426;28;20199;-60
2022/03/20 06:48:22;;;;;;;24.00;18.63;;;;;;;;;;5003778;28;20193;-60
2022/03/20 06:50:48;;;;;;;24.37;19.37;;;;;;;;;;5010053;28;20211;-60
2022/03/20 06:53:14;;;;;;;25.77;18.40;;;;;;;;;;5006366;28;20344;-60
2022/03/20 06:55:41;;;;;;;26.27;18.00;;;;;;;;;;5005304;28;20228;-60
2022/03/20 06:58:07;;;;;;;23.80;18.40;;;;;;;;;;5002662;28;20198;-59
2022/03/20 07:00:33;;;;;;;25.03;19.23;;;;;;;;;;5007875;28;20271;-60
2022/03/20 07:03:00;;;;;;;22.00;18.13;;;;;;;;;;5005818;28;21146;-59
2022/03/20 07:05:26;;;;;;;27.83;19.33;;;;;;;;;;5002970;28;20683;-59
2022/03/20 07:07:53;;;;;;;28.97;19.40;;;;;;;;;;4999658;28;20239;-60
2022/03/20 07:10:21;;;;;;;25.37;18.90;;;;;;;;;;4993256;28;20196;-60
2022/03/20 07:12:46;;;;;;;25.57;19.50;;;;;;;;;;4995046;28;20201;-59
2022/03/20 07:15:12;;;;;;;26.43;18.47;;;;;;;;;;4995390;28;20251;-60
2022/03/20 07:17:40;;;;;;;23.80;19.20;;;;;;;;;;5000256;28;20189;-59
2022/03/20 07:20:09;;;;;;;24.47;19.27;;;;;;;;;;5000676;28;20573;-60
2022/03/20 07:22:35;;;;;;;24.93;19.27;;;;;;;;;;5002237;28;20210;-60
2022/03/20 07:29:29;;;;;;;24.83;19.43;;;;;;;;;;5021944;28;20272;-59
2022/03/20 07:30:32;;;;;;;24.00;18.53;;;;;;;;;;4996469;28;20264;-59
2022/03/20 07:32:58;;;;;;;24.67;20.50;;;;;;;;;;5000441;28;20194;-60
2022/03/20 07:35:24;;;;;;;29.43;20.93;;;;;;;;;;5008311;28;20189;-60
2022/03/20 07:37:51;;;;;;;24.93;20.17;;;;;;;;;;5004204;28;20195;-60
2022/03/20 07:40:17;;;;;;;26.67;20.27;;;;;;;;;;4997503;28;20217;-60
2022/03/20 07:42:42;;;;;;;25.67;20.13;;;;;;;;;;4995289;28;20277;-60
2022/03/20 07:45:09;;;;;;;27.47;20.97;;;;;;;;;;4996313;28;20193;-60
2022/03/20 07:47:35;;;;;;;25.00;20.30;;;;;;;;;;5002563;28;20564;-60
2022/03/20 07:50:02;;;;;;;28.40;20.30;;;;;;;;;;5003094;28;20649;-61
2022/03/20 07:52:28;;;;;;;23.50;19.37;;;;;;;;;;5003468;28;20818;-60
2022/03/20 07:54:54;;;;;;;26.33;19.40;;;;;;;;;;5002760;28;20274;-60
2022/03/20 07:57:20;;;;;;;25.13;18.93;;;;;;;;;;4995593;28;20595;-60
2022/03/20 07:59:46;;;;;;;25.53;20.20;;;;;;;;;;5005688;28;20197;-59
2022/03/20 08:02:12;;;;;;;26.40;21.27;;;;;;;;;;5008156;28;20622;-59
2022/03/20 08:04:40;;;;;;;24.67;20.10;;;;;;;;;;5008758;28;20209;-60
2022/03/20 08:07:06;;;;;;;27.17;20.47;;;;;;;;;;5008076;28;20189;-59
2022/03/20 08:09:32;;;;;;;26.33;20.03;;;;;;;;;;5006826;28;20202;-59
2022/03/20 08:11:58;;;;;;;26.37;20.27;;;;;;;;;;5008073;28;20211;-59
2022/03/20 08:14:25;;;;;;;25.77;20.23;;;;;;;;;;5007936;28;20221;-59
2022/03/20 08:16:51;;;;;;;25.93;20.30;;;;;;;;;;5002597;28;20189;-59
2022/03/20 08:19:19;;;;;;;25.17;19.87;;;;;;;;;;5007905;28;20250;-60
2022/03/20 08:21:47;;;;;;;23.63;20.23;;;;;;;;;;4999122;28;20767;-59
2022/03/20 08:24:14;;;;;;;22.87;19.40;;;;;;;;;;5003641;28;20192;-59
2022/03/20 08:26:40;;;;;;;28.43;19.90;;;;;;;;;;5004513;28;20232;-59
2022/03/20 08:29:10;;;;;;;26.97;20.63;;;;;;;;;;4998360;28;20194;-59
2022/03/20 08:31:36;;;;;;;22.93;19.83;;;;;;;;;;4999740;28;20589;-60
2022/03/20 08:34:02;;;;;;;24.77;20.43;;;;;;;;;;5001759;28;20260;-59
2022/03/20 08:36:28;;;;;;;26.07;19.87;;;;;;;;;;4994873;28;20209;-60
2022/03/20 08:38:54;;;;;;;24.87;21.00;;;;;;;;;;4998239;28;20201;-59
2022/03/20 08:41:20;;;;;;;25.17;20.93;;;;;;;;;;4995771;28;20186;-59
2022/03/20 08:43:46;;;;;;;24.40;20.63;;;;;;;;;;5001969;28;20221;-59
2022/03/20 08:46:12;;;;;;;23.97;20.63;;;;;;;;;;5006040;28;20540;-60
2022/03/20 08:48:39;;;;;;;26.90;21.00;;;;;;;;;;5007103;28;20189;-60
2022/03/20 08:51:05;;;;;;;25.10;20.33;;;;;;;;;;5006467;28;20549;-60
2022/03/20 08:53:32;;;;;;;22.53;20.10;;;;;;;;;;5008690;28;20207;-59
2022/03/20 08:55:58;;;;;;;25.40;20.10;;;;;;;;;;5010319;28;20201;-59
2022/03/20 08:58:24;;;;;;;22.27;19.90;;;;;;;;;;5011510;28;20681;-59
2022/03/20 09:00:50;;;;;;;24.37;20.47;;;;;;;;;;5005707;28;20193;-60
2022/03/20 09:03:16;;;;;;;25.23;18.63;;;;;;;;;;5003942;28;20255;-60
2022/03/20 09:05:42;;;;;;;22.83;19.80;;;;;;;;;;4992857;28;20216;-59
2022/03/20 09:08:08;;;;;;;24.87;19.70;;;;;;;;;;4997342;28;20527;-59
2022/03/20 09:10:34;;;;;;;25.90;20.57;;;;;;;;;;5001038;28;20243;-59
2022/03/20 09:13:00;;;;;;;23.53;19.10;;;;;;;;;;5000487;28;20287;-59
2022/03/20 09:15:27;;;;;;;24.27;19.33;;;;;;;;;;5001539;28;20721;-60
2022/03/20 09:20:38;;;;;;;23.10;19.33;;;;;;;;;;5006744;28;20248;-59
2022/03/20 09:23:05;;;;;;;22.03;19.63;;;;;;;;;;5005865;28;20227;-59
2022/03/20 09:25:32;;;;;;;22.37;19.87;;;;;;;;;;5003725;28;20236;-59
2022/03/20 09:27:58;;;;;;;21.60;19.40;;;;;;;;;;5007401;28;20195;-59
2022/03/20 09:30:24;;;;;;;21.53;18.97;;;;;;;;;;5005257;28;20197;-59
2022/03/20 09:32:50;;;;;;;23.43;18.63;;;;;;;;;;5008847;28;20194;-59
2022/03/20 09:35:16;;;;;;;21.87;18.97;;;;;;;;;;4997824;28;20192;-59
2022/03/20 09:37:42;;;;;;;22.13;19.77;;;;;;;;;;5000502;28;20777;-59
2022/03/20 09:40:09;;;;;;;26.13;19.40;;;;;;;;;;5006767;28;20682;-59
2022/03/20 09:42:35;;;;;;;22.07;19.60;;;;;;;;;;5009104;28;20213;-60
2022/03/20 09:45:01;;;;;;;23.67;20.17;;;;;;;;;;5008811;28;20200;-60
2022/03/20 09:47:27;;;;;;;21.83;19.53;;;;;;;;;;4998036;28;20204;-60
2022/03/20 09:49:56;;;;;;;22.17;19.57;;;;;;;;;;5001366;28;20221;-59
2022/03/20 09:52:23;;;;;;;26.07;21.20;;;;;;;;;;5005335;28;20232;-60
2022/03/20 09:54:49;;;;;;;22.57;20.17;;;;;;;;;;5008842;28;20271;-60
2022/03/20 09:57:15;;;;;;;22.90;19.70;;;;;;;;;;4999668;28;20198;-60
2022/03/20 09:59:41;;;;;;;23.20;19.80;;;;;;;;;;5002966;28;20276;-59
2022/03/20 10:02:11;;;;;;;23.93;19.93;;;;;;;;;;5004187;28;20220;-60
2022/03/20 10:05:12;;;;;;;23.10;20.20;;;;;;;;;;5004871;28;20554;-61
2022/03/20 10:07:40;;;;;;;22.43;19.33;;;;;;;;;;4978739;28;20732;-60
2022/03/20 10:10:06;;;;;;;21.63;19.43;;;;;;;;;;5003081;28;20208;-60
2022/03/20 10:12:32;;;;;;;27.27;21.23;;;;;;;;;;5007881;28;20650;-60
2022/03/20 10:14:58;;;;;;;21.37;19.17;;;;;;;;;;4998199;28;20250;-59
2022/03/20 10:17:24;;;;;;;21.58;19.45;;;;;;;;;;5004968;28;20875;-60
2022/03/20 10:19:50;;;;;;;22.80;20.10;;;;;;;;;;5006153;28;20189;-60
2022/03/20 10:22:17;;;;;;;23.65;19.73;;;;;;;;;;5009300;28;20209;-60
2022/03/20 10:24:50;;;;;;;24.33;20.48;;;;;;;;;;5008384;28;20760;-59
2022/03/20 10:27:16;;;;;;;22.50;20.20;;;;;;;;;;5006811;28;20185;-59
2022/03/20 10:29:55;;;;;;;22.57;20.37;;;;;;;;;;5002311;28;20255;-62
2022/03/20 10:32:22;;;;;;;22.20;19.87;;;;;;;;;;5001115;28;20201;-61
2022/03/20 10:34:57;;;;;;;23.27;20.70;;;;;;;;;;5004421;28;20193;-61
2022/03/20 10:37:43;;;;;;;22.10;19.73;;;;;;;;;;5007527;28;20406;-61
2022/03/20 10:40:09;;;;;;;21.73;19.27;;;;;;;;;;5004889;28;20189;-61
2022/03/20 10:42:35;;;;;;;22.60;20.20;;;;;;;;;;5007875;28;20225;-59
2022/03/20 10:45:05;;;;;;;22.43;20.03;;;;;;;;;;4999500;28;20189;-60
2022/03/20 10:47:31;;;;;;;22.17;19.77;;;;;;;;;;4992960;28;20193;-60
2022/03/20 10:50:05;;;;;;;22.23;19.87;;;;;;;;;;4993181;28;20206;-60
2022/03/20 10:52:32;;;;;;;23.53;20.27;;;;;;;;;;4987802;28;20205;-60
2022/03/20 10:54:58;;;;;;;23.90;20.70;;;;;;;;;;4991268;28;20224;-61
2022/03/20 10:57:34;;;;;;;22.33;19.93;;;;;;;;;;4991213;28;20541;-60
2022/03/20 11:00:00;;;;;;;21.97;19.73;;;;;;;;;;4993985;28;20677;-61
2022/03/20 11:02:26;;;;;;;24.00;21.03;;;;;;;;;;4996733;28;20213;-60
2022/03/20 11:04:53;;;;;;;21.60;19.37;;;;;;;;;;4986470;28;20216;-60
2022/03/20 11:07:23;;;;;;;21.13;18.87;;;;;;;;;;4983829;28;20273;-60
2022/03/20 11:09:49;;;;;;;20.88;18.67;;;;;;;;;;4986348;28;20416;-60
2022/03/20 11:12:16;;;;;;;22.88;19.40;;;;;;;;;;4986845;28;20695;-66
2022/03/20 11:14:42;;;;;;;22.02;19.05;;;;;;;;;;4987177;28;20635;-60
2022/03/20 11:17:08;;;;;;;22.60;20.20;;;;;;;;;;4984683;28;20838;-60
2022/03/20 11:19:35;;;;;;;22.23;19.27;;;;;;;;;;4982005;28;20942;-63
2022/03/20 11:22:05;;;;;;;21.27;16.83;;;;;;;;;;4977150;28;20248;-58
2022/03/20 11:24:31;;;;;;;39.63;21.60;;;;;;;;;;4981506;28;20192;-57
2022/03/20 11:27:01;;;;;;;20.08;17.70;;;;;;;;;;4986247;28;20564;-59
2022/03/20 11:29:28;;;;;;;20.35;17.05;;;;;;;;;;4986036;28;20800;-59
2022/03/20 11:31:54;;;;;;;20.08;16.63;;;;;;;;;;4985313;28;20645;-59
2022/03/20 11:34:19;;;;;;;20.60;16.95;;;;;;;;;;4991167;28;20404;-59
2022/03/20 11:37:05;;;;;;;21.10;17.40;;;;;;;;;;4991230;28;20190;-59
2022/03/20 11:39:31;;;;;;;21.38;18.13;;;;;;;;;;4982516;28;20256;-57
2022/03/20 11:42:15;;;;;;;19.88;16.98;;;;;;;;;;4987899;28;20854;-57
2022/03/20 11:44:50;;;;;;;19.87;17.77;;;;;;;;;;4991486;28;20609;-57
2022/03/20 11:47:16;;;;;;;21.00;18.73;;;;;;;;;;4983503;28;20189;-57
2022/03/20 11:49:42;;;;;;;20.63;18.43;;;;;;;;;;4980036;28;21219;-56
2022/03/20 11:52:10;;;;;;;21.10;18.30;;;;;;;;;;4985842;28;20201;-56
2022/03/20 11:54:39;;;;;;;25.10;19.37;;;;;;;;;;4986203;28;20201;-57
2022/03/20 11:57:24;;;;;;;21.30;18.50;;;;;;;;;;4982032;28;20197;-56
2022/03/20 11:59:51;;;;;;;22.47;17.47;;;;;;;;;;4984028;28;20312;-57
2022/03/20 12:02:18;;;;;;;21.50;19.10;;;;;;;;;;4980476;28;21578;-56
2022/03/20 12:04:52;;;;;;;23.07;20.67;;;;;;;;;;4984500;28;20904;-56
2022/03/20 12:07:23;;;;;;;24.13;20.27;;;;;;;;;;4986956;28;20185;-56
2022/03/20 12:09:51;;;;;;;22.67;20.27;;;;;;;;;;4974800;28;20197;-57
2022/03/20 12:12:37;;;;;;;24.00;19.93;;;;;;;;;;4986290;28;20193;-56
2022/03/20 12:15:09;;;;;;;24.60;21.33;;;;;;;;;;4980768;28;20193;-56
2022/03/20 12:18:05;;;;;;;23.10;20.60;;;;;;;;;;4988972;28;20854;-58
2022/03/20 12:20:51;;;;;;;25.77;22.40;;;;;;;;;;4980126;28;20686;-56
2022/03/20 12:23:32;;;;;;;28.73;22.87;;;;;;;;;;4986594;28;20256;-56
2022/03/20 12:25:58;;;;;;;26.67;23.07;;;;;;;;;;4989738;28;20229;-56
2022/03/20 12:28:28;;;;;;;28.93;23.63;;;;;;;;;;4987713;28;20565;-56
2022/03/20 12:30:54;;;;;;;27.80;23.27;;;;;;;;;;4994216;28;20251;-56
2022/03/20 12:33:26;;;;;;;33.43;24.63;;;;;;;;;;4996749;28;20205;-56
2022/03/20 12:35:52;;;;;;;34.47;25.23;;;;;;;;;;4997440;28;20197;-56
2022/03/20 12:38:34;;;;;;;30.37;25.00;;;;;;;;;;4996162;28;20196;-55
2022/03/20 12:41:13;;;;;;;29.67;23.80;;;;;;;;;;4993586;28;20819;-56
2022/03/20 12:43:40;;;;;;;29.73;25.20;;;;;;;;;;4991961;28;20208;-56
2022/03/20 12:46:07;;;;;;;31.13;25.73;;;;;;;;;;4995731;28;20199;-57
2022/03/20 12:48:34;;;;;;;28.93;25.60;;;;;;;;;;4996513;28;20735;-57
2022/03/20 12:51:03;;;;;;;31.07;25.80;;;;;;;;;;4999110;28;20872;-58
2022/03/20 12:53:36;;;;;;;29.50;25.93;;;;;;;;;;4989479;28;20642;-56
2022/03/20 12:56:04;;;;;;;28.93;24.73;;;;;;;;;;4999774;28;20207;-58
2022/03/20 12:58:30;;;;;;;28.17;24.33;;;;;;;;;;4994097;28;20252;-56
2022/03/20 13:00:58;;;;;;;31.87;26.80;;;;;;;;;;4992566;28;20552;-57
2022/03/20 13:03:25;;;;;;;32.63;27.90;;;;;;;;;;4994921;28;20212;-56
2022/03/20 13:05:51;;;;;;;31.33;27.03;;;;;;;;;;4991760;28;20205;-54
2022/03/20 13:08:23;;;;;;;30.47;26.07;;;;;;;;;;4997529;28;20198;-57
2022/03/20 13:10:50;;;;;;;33.27;26.13;;;;;;;;;;4994550;28;20809;-57
2022/03/20 13:13:20;;;;;;;32.53;27.87;;;;;;;;;;4994587;28;20192;-57
2022/03/20 13:15:46;;;;;;;31.47;26.73;;;;;;;;;;4991699;28;20224;-57
2022/03/20 13:18:12;;;;;;;31.83;27.00;;;;;;;;;;4992578;28;20734;-57
2022/03/20 13:20:38;;;;;;;32.37;27.60;;;;;;;;;;4991455;28;20197;-57
2022/03/20 13:23:08;;;;;;;34.47;28.33;;;;;;;;;;4997974;28;20216;-57
2022/03/20 13:25:37;;;;;;;35.53;27.47;;;;;;;;;;4993238;28;20233;-57
2022/03/20 13:28:03;;;;;;;34.77;28.30;;;;;;;;;;4996042;28;20189;-58
2022/03/20 13:30:33;;;;;;;31.27;27.47;;;;;;;;;;4992971;28;20282;-58
2022/03/20 13:32:59;;;;;;;32.43;26.97;;;;;;;;;;4992308;28;20268;-57
2022/03/20 13:35:25;;;;;;;33.50;27.57;;;;;;;;;;4995101;28;20197;-58
2022/03/20 13:38:01;;;;;;;35.00;28.00;;;;;;;;;;4998886;28;20625;-58
2022/03/20 13:40:28;;;;;;;36.03;28.60;;;;;;;;;;4993129;28;20203;-57
2022/03/20 13:42:54;;;;;;;30.53;26.97;;;;;;;;;;4986271;28;20221;-57
2022/03/20 13:45:20;;;;;;;30.83;27.03;;;;;;;;;;4989333;28;20900;-57
2022/03/20 13:47:47;;;;;;;32.00;27.27;;;;;;;;;;4990012;28;20280;-58
2022/03/20 13:50:14;;;;;;;33.80;27.83;;;;;;;;;;4991381;28;20192;-58
2022/03/20 13:52:40;;;;;;;35.60;27.13;;;;;;;;;;4995446;28;20622;-57
2022/03/20 13:55:10;;;;;;;32.03;27.53;;;;;;;;;;4991758;28;20206;-57
2022/03/20 13:57:49;;;;;;;32.83;27.67;;;;;;;;;;4987484;28;20193;-57
2022/03/20 14:00:15;;;;;;;32.93;26.63;;;;;;;;;;4994761;28;20217;-57
2022/03/20 14:02:42;;;;;;;31.77;27.07;;;;;;;;;;4998824;28;20224;-59
2022/03/20 14:05:14;;;;;;;28.10;24.83;;;;;;;;;;4993827;28;20216;-58
2022/03/20 14:07:40;;;;;;;30.40;24.53;;;;;;;;;;4990835;28;20185;-58
2022/03/20 14:10:24;;;;;;;27.83;24.77;;;;;;;;;;5003296;28;20212;-58
2022/03/20 14:12:51;;;;;;;30.37;24.93;;;;;;;;;;4999947;28;20225;-58
2022/03/20 14:15:17;;;;;;;28.93;22.93;;;;;;;;;;4999669;28;20193;-58
2022/03/20 14:17:50;;;;;;;29.73;24.73;;;;;;;;;;4999592;28;20204;-58
2022/03/20 14:20:22;;;;;;;27.00;23.50;;;;;;;;;;4997540;28;20382;-58
2022/03/20 14:22:55;;;;;;;26.50;23.10;;;;;;;;;;4997124;28;20660;-58
2022/03/20 14:25:35;;;;;;;27.13;23.30;;;;;;;;;;4992243;28;20307;-58
2022/03/20 14:28:04;;;;;;;25.60;22.63;;;;;;;;;;4995376;28;20189;-58
2022/03/20 14:41:34;;;;;;;21.87;19.57;;;;;;;;;;4992683;28;20647;-58
2022/03/20 14:44:14;;;;;;;22.77;18.83;;;;;;;;;;4989972;28;20254;-58
2022/03/20 14:46:40;;;;;;;22.77;19.87;;;;;;;;;;4996155;28;20181;-58
2022/03/20 14:49:07;;;;;;;23.57;19.20;;;;;;;;;;4993022;28;20297;-58
2022/03/20 14:51:33;;;;;;;21.80;19.03;;;;;;;;;;4996917;28;20646;-58
2022/03/20 14:53:59;;;;;;;22.33;19.70;;;;;;;;;;4985816;28;20194;-58
2022/03/20 14:56:25;;;;;;;21.37;19.20;;;;;;;;;;4981842;28;20553;-58